sensor_id;sensor_type;location;lat;lon;timestamp;pressure;altitude;pressure_sealevel;temperature;humidity
12172;BME280;6149;52.418;13.668;2022-11-20T00:01:24;100730.88;;;-0.53;100.00
12172;BME280;6149;52.418;13.668;2022-11-20T00:03:52;100729.16;;;-0.51;100.00
12172;BME280;6149;52.418;13.668;2022-11-20T00:06:21;100728.28;;;-0.51;100.00
12172;BME280;6149;52.418;13.668;2022-11-20T00:08:48;100724.84;;;-0.53;100.00
12172;BME280;6149;52.418;13.668;2022-11-20T00:11:17;100732.69;;;-0.64;100.00
12172;BME280;6149;52.418;13.668;2022-11-20T00:13:45;100727.47;;;-0.61;100.00
12172;BME280;6149;52.418;13.668;2022-11-20T00:16:15;100724.88;;;-0.59;100.00
12172;BME280;6149;52.418;13.668;2022-11-20T00:18:44;100719.69;;;-0.64;100.00
12172;BME280;6149;52.418;13.668;2022-11-20T00:21:12;100724.88;;;-0.62;100.00
12172;BME280;6149;52.418;13.668;2022-11-20T00:23:42;100722.31;;;-0.67;100.00
12172;BME280;6149;52.418;13.668;2022-11-20T00:26:13;100723.16;;;-0.67;100.00
12172;BME280;6149;52.418;13.668;2022-11-20T00:28:42;100724.03;;;-0.66;100.00
12172;BME280;6149;52.418;13.668;2022-11-20T00:31:11;100720.53;;;-0.59;100.00
12172;BME280;6149;52.418;13.668;2022-11-20T00:33:40;100719.69;;;-0.65;100.00
12172;BME280;6149;52.418;13.668;2022-11-20T00:36:09;100722.31;;;-0.69;100.00
12172;BME280;6149;52.418;13.668;2022-11-20T00:38:36;100721.47;;;-0.74;100.00
12172;BME280;6149;52.418;13.668;2022-11-20T00:41:07;100720.66;;;-0.79;100.00
12172;BME280;6149;52.418;13.668;2022-11-20T00:43:36;100724.09;;;-0.75;100.00
12172;BME280;6149;52.418;13.668;2022-11-20T00:46:05;100724.94;;;-0.73;100.00
12172;BME280;6149;52.418;13.668;2022-11-20T00:48:32;100730.16;;;-0.76;100.00
12172;BME280;6149;52.418;13.668;2022-11-20T00:50:59;100724.97;;;-0.76;100.00
12172;BME280;6149;52.418;13.668;2022-11-20T00:53:26;100730.19;;;-0.79;100.00
12172;BME280;6149;52.418;13.668;2022-11-20T00:55:54;100733.63;;;-0.79;100.00
12172;BME280;6149;52.418;13.668;2022-11-20T00:58:23;100734.50;;;-0.77;100.00
12172;BME280;6149;52.418;13.668;2022-11-20T01:00:51;100723.25;;;-0.76;100.00
12172;BME280;6149;52.418;13.668;2022-11-20T01:03:18;100731.91;;;-0.78;100.00
12172;BME280;6149;52.418;13.668;2022-11-20T01:05:45;100733.59;;;-0.74;100.00
12172;BME280;6149;52.418;13.668;2022-11-20T01:08:11;100740.50;;;-0.72;100.00
12172;BME280;6149;52.418;13.668;2022-11-20T01:10:38;100731.03;;;-0.77;100.00
12172;BME280;6149;52.418;13.668;2022-11-20T01:13:04;100736.25;;;-0.83;100.00
12172;BME280;6149;52.418;13.668;2022-11-20T01:15:50;100735.38;;;-0.84;100.00
12172;BME280;6149;52.418;13.668;2022-11-20T01:18:16;100731.06;;;-0.83;100.00
12172;BME280;6149;52.418;13.668;2022-11-20T01:20:43;100738.81;;;-0.77;100.00
12172;BME280;6149;52.418;13.668;2022-11-20T01:23:10;100730.13;;;-0.72;100.00
12172;BME280;6149;52.418;13.668;2022-11-20T01:25:36;100726.75;;;-0.84;100.00
12172;BME280;6149;52.418;13.668;2022-11-20T01:28:03;100725.88;;;-0.83;100.00
12172;BME280;6149;52.418;13.668;2022-11-20T01:30:30;100728.47;;;-0.85;100.00
12172;BME280;6149;52.418;13.668;2022-11-20T01:32:57;100725.00;;;-0.85;100.00
12172;BME280;6149;52.418;13.668;2022-11-20T01:35:24;100721.53;;;-0.80;100.00
12172;BME280;6149;52.418;13.668;2022-11-20T01:37:51;100725.88;;;-0.86;100.00
12172;BME280;6149;52.418;13.668;2022-11-20T01:40:17;100724.97;;;-0.76;100.00
12172;BME280;6149;52.418;13.668;2022-11-20T01:42:46;100728.47;;;-0.86;100.00
12172;BME280;6149;52.418;13.668;2022-11-20T01:46:03;100729.31;;;-0.83;100.00
12172;BME280;6149;52.418;13.668;2022-11-20T01:48:36;100718.09;;;-0.83;100.00
12172;BME280;6149;52.418;13.668;2022-11-20T01:51:07;100718.94;;;-0.80;100.00
12172;BME280;6149;52.418;13.668;2022-11-20T01:53:39;100718.06;;;-0.82;100.00
12172;BME280;6149;52.418;13.668;2022-11-20T01:56:09;100718.06;;;-0.82;100.00
12172;BME280;6149;52.418;13.668;2022-11-20T01:58:42;100725.78;;;-0.71;100.00
12172;BME280;6149;52.418;13.668;2022-11-20T02:01:12;100711.94;;;-0.70;100.00
12172;BME280;6149;52.418;13.668;2022-11-20T02:03:41;100719.78;;;-0.76;100.00
12172;BME280;6149;52.418;13.668;2022-11-20T02:06:12;100718.06;;;-0.79;100.00
12172;BME280;6149;52.418;13.668;2022-11-20T02:08:43;100712.00;;;-0.79;100.00
12172;BME280;6149;52.418;13.668;2022-11-20T02:11:10;100711.16;;;-0.83;100.00
12172;BME280;6149;52.418;13.668;2022-11-20T02:13:38;100702.50;;;-0.80;100.00
12172;BME280;6149;52.418;13.668;2022-11-20T02:16:12;100703.38;;;-0.81;100.00
12172;BME280;6149;52.418;13.668;2022-11-20T02:18:42;100692.13;;;-0.80;100.00
12172;BME280;6149;52.418;13.668;2022-11-20T02:21:16;100694.75;;;-0.86;100.00
12172;BME280;6149;52.418;13.668;2022-11-20T02:23:58;100698.22;;;-0.89;100.00
12172;BME280;6149;52.418;13.668;2022-11-20T02:26:28;100699.09;;;-0.93;100.00
12172;BME280;6149;52.418;13.668;2022-11-20T02:28:56;100693.03;;;-0.93;100.00
12172;BME280;6149;52.418;13.668;2022-11-20T02:31:27;100694.78;;;-0.97;100.00
12172;BME280;6149;52.418;13.668;2022-11-20T02:33:55;100693.03;;;-0.90;100.00
12172;BME280;6149;52.418;13.668;2022-11-20T02:36:24;100695.66;;;-0.98;100.00
12172;BME280;6149;52.418;13.668;2022-11-20T02:38:54;100690.47;;;-1.01;100.00
12172;BME280;6149;52.418;13.668;2022-11-20T02:41:21;100687.88;;;-0.99;100.00
12172;BME280;6149;52.418;13.668;2022-11-20T02:43:48;100687.03;;;-1.03;100.00
12172;BME280;6149;52.418;13.668;2022-11-20T02:46:15;100690.47;;;-0.96;100.00
12172;BME280;6149;52.418;13.668;2022-11-20T02:48:41;100684.41;;;-0.98;100.00
12172;BME280;6149;52.418;13.668;2022-11-20T02:51:08;100687.03;;;-1.05;100.00
12172;BME280;6149;52.418;13.668;2022-11-20T02:53:34;100692.19;;;-0.97;100.00
12172;BME280;6149;52.418;13.668;2022-11-20T02:56:03;100683.50;;;-0.87;100.00
12172;BME280;6149;52.418;13.668;2022-11-20T02:58:30;100679.22;;;-0.95;100.00
12172;BME280;6149;52.418;13.668;2022-11-20T03:00:57;100682.69;;;-0.99;100.00
12172;BME280;6149;52.418;13.668;2022-11-20T03:03:24;100674.91;;;-1.01;100.00
12172;BME280;6149;52.418;13.668;2022-11-20T03:05:50;100672.22;;;-0.83;100.00
12172;BME280;6149;52.418;13.668;2022-11-20T03:08:17;100680.94;;;-0.97;100.00
12172;BME280;6149;52.418;13.668;2022-11-20T03:10:44;100675.78;;;-1.02;100.00
12172;BME280;6149;52.418;13.668;2022-11-20T03:13:11;100671.47;;;-1.03;100.00
12172;BME280;6149;52.418;13.668;2022-11-20T03:15:38;100680.09;;;-1.04;100.00
12172;BME280;6149;52.418;13.668;2022-11-20T03:18:05;100674.03;;;-1.02;100.00
12172;BME280;6149;52.418;13.668;2022-11-20T03:20:32;100680.09;;;-1.03;100.00
12172;BME280;6149;52.418;13.668;2022-11-20T03:22:59;100674.91;;;-1.04;100.00
12172;BME280;6149;52.418;13.668;2022-11-20T03:25:26;100664.50;;;-0.96;100.00
12172;BME280;6149;52.418;13.668;2022-11-20T03:27:53;100673.19;;;-1.05;100.00
12172;BME280;6149;52.418;13.668;2022-11-20T03:30:22;100667.13;;;-0.99;100.00
12172;BME280;6149;52.418;13.668;2022-11-20T03:32:48;100672.34;;;-1.06;100.00
12172;BME280;6149;52.418;13.668;2022-11-20T03:35:15;100662.84;;;-1.10;100.00
12172;BME280;6149;52.418;13.668;2022-11-20T03:37:42;100662.84;;;-1.11;100.00
12172;BME280;6149;52.418;13.668;2022-11-20T03:40:11;100666.28;;;-1.11;100.00
12172;BME280;6149;52.418;13.668;2022-11-20T03:42:38;100666.34;;;-1.12;100.00
12172;BME280;6149;52.418;13.668;2022-11-20T03:45:15;100662.03;;;-1.15;100.00
12172;BME280;6149;52.418;13.668;2022-11-20T03:47:44;100658.56;;;-1.17;100.00
12172;BME280;6149;52.418;13.668;2022-11-20T03:50:12;100657.72;;;-1.17;100.00
12172;BME280;6149;52.418;13.668;2022-11-20T03:52:39;100655.13;;;-1.22;100.00
12172;BME280;6149;52.418;13.668;2022-11-20T03:55:07;100661.19;;;-1.26;100.00
12172;BME280;6149;52.418;13.668;2022-11-20T03:57:34;100661.19;;;-1.20;100.00
12172;BME280;6149;52.418;13.668;2022-11-20T04:00:00;100662.06;;;-1.28;100.00
12172;BME280;6149;52.418;13.668;2022-11-20T04:02:27;100659.47;;;-1.28;100.00
12172;BME280;6149;52.418;13.668;2022-11-20T04:04:55;100663.78;;;-1.27;100.00
12172;BME280;6149;52.418;13.668;2022-11-20T04:07:21;100660.31;;;-1.23;100.00
12172;BME280;6149;52.418;13.668;2022-11-20T04:09:48;100656.00;;;-1.23;100.00
12172;BME280;6149;52.418;13.668;2022-11-20T04:12:15;100662.06;;;-1.25;100.00
12172;BME280;6149;52.418;13.668;2022-11-20T04:14:41;100652.53;;;-1.23;100.00
12172;BME280;6149;52.418;13.668;2022-11-20T04:17:08;100651.69;;;-1.22;100.00
12172;BME280;6149;52.418;13.668;2022-11-20T04:19:34;100657.72;;;-1.22;100.00
12172;BME280;6149;52.418;13.668;2022-11-20T04:22:02;100653.41;;;-1.24;100.00
12172;BME280;6149;52.418;13.668;2022-11-20T04:24:29;100658.59;;;-1.24;100.00
12172;BME280;6149;52.418;13.668;2022-11-20T04:26:55;100659.47;;;-1.28;100.00
12172;BME280;6149;52.418;13.668;2022-11-20T04:29:22;100659.47;;;-1.30;100.00
12172;BME280;6149;52.418;13.668;2022-11-20T04:31:48;100664.66;;;-1.24;100.00
12172;BME280;6149;52.418;13.668;2022-11-20T04:34:15;100658.59;;;-1.24;100.00
12172;BME280;6149;52.418;13.668;2022-11-20T04:36:42;100651.69;;;-1.30;100.00
12172;BME280;6149;52.418;13.668;2022-11-20T04:39:13;100643.91;;;-1.30;100.00
12172;BME280;6149;52.418;13.668;2022-11-20T04:41:41;100652.56;;;-1.29;100.00
12172;BME280;6149;52.418;13.668;2022-11-20T04:44:07;100643.06;;;-1.33;100.00
12172;BME280;6149;52.418;13.668;2022-11-20T04:46:35;100639.59;;;-1.28;100.00
12172;BME280;6149;52.418;13.668;2022-11-20T04:49:03;100637.00;;;-1.32;100.00
12172;BME280;6149;52.418;13.668;2022-11-20T04:51:30;100638.75;;;-1.35;100.00
12172;BME280;6149;52.418;13.668;2022-11-20T04:53:57;100630.09;;;-1.33;100.00
12172;BME280;6149;52.418;13.668;2022-11-20T04:56:26;100642.22;;;-1.36;100.00
12172;BME280;6149;52.418;13.668;2022-11-20T04:58:52;100638.75;;;-1.36;100.00
12172;BME280;6149;52.418;13.668;2022-11-20T05:01:22;100630.97;;;-1.33;100.00
12172;BME280;6149;52.418;13.668;2022-11-20T05:03:50;100634.44;;;-1.34;100.00
12172;BME280;6149;52.418;13.668;2022-11-20T05:06:19;100637.03;;;-1.34;100.00
12172;BME280;6149;52.418;13.668;2022-11-20T05:08:47;100638.75;;;-1.30;100.00
12172;BME280;6149;52.418;13.668;2022-11-20T05:11:16;100625.75;;;-1.27;100.00
12172;BME280;6149;52.418;13.668;2022-11-20T05:13:45;100625.78;;;-1.30;100.00
12172;BME280;6149;52.418;13.668;2022-11-20T05:16:13;100613.66;;;-1.28;100.00
12172;BME280;6149;52.418;13.668;2022-11-20T05:18:41;100616.25;;;-1.29;100.00
12172;BME280;6149;52.418;13.668;2022-11-20T05:21:08;100620.59;;;-1.30;100.00
12172;BME280;6149;52.418;13.668;2022-11-20T05:23:36;100621.44;;;-1.28;100.00
12172;BME280;6149;52.418;13.668;2022-11-20T05:26:04;100627.47;;;-1.23;100.00
12172;BME280;6149;52.418;13.668;2022-11-20T05:28:31;100617.09;;;-1.26;100.00
12172;BME280;6149;52.418;13.668;2022-11-20T05:31:05;100622.25;;;-1.17;100.00
12172;BME280;6149;52.418;13.668;2022-11-20T05:33:33;100617.97;;;-1.22;100.00
12172;BME280;6149;52.418;13.668;2022-11-20T05:36:03;100616.22;;;-1.23;100.00
12172;BME280;6149;52.418;13.668;2022-11-20T05:38:31;100618.84;;;-1.25;100.00
12172;BME280;6149;52.418;13.668;2022-11-20T05:41:03;100622.28;;;-1.26;100.00
12172;BME280;6149;52.418;13.668;2022-11-20T05:43:32;100621.41;;;-1.23;100.00
12172;BME280;6149;52.418;13.668;2022-11-20T05:45:59;100624.88;;;-1.24;100.00
12172;BME280;6149;52.418;13.668;2022-11-20T05:48:28;100622.28;;;-1.26;100.00
12172;BME280;6149;52.418;13.668;2022-11-20T05:50:56;100620.56;;;-1.22;100.00
12172;BME280;6149;52.418;13.668;2022-11-20T05:53:23;100616.22;;;-1.19;100.00
12172;BME280;6149;52.418;13.668;2022-11-20T05:55:56;100608.44;;;-1.22;100.00
12172;BME280;6149;52.418;13.668;2022-11-20T05:58:24;100608.44;;;-1.19;100.00
12172;BME280;6149;52.418;13.668;2022-11-20T06:00:51;100611.88;;;-1.17;100.00
12172;BME280;6149;52.418;13.668;2022-11-20T06:03:17;100608.44;;;-1.17;100.00
12172;BME280;6149;52.418;13.668;2022-11-20T06:05:46;100608.44;;;-1.19;100.00
12172;BME280;6149;52.418;13.668;2022-11-20T06:08:13;100611.88;;;-1.18;100.00
12172;BME280;6149;52.418;13.668;2022-11-20T06:10:39;100614.47;;;-1.14;100.00
12172;BME280;6149;52.418;13.668;2022-11-20T06:13:06;100614.47;;;-1.14;100.00
12172;BME280;6149;52.418;13.668;2022-11-20T06:15:33;100610.13;;;-1.15;100.00
12172;BME280;6149;52.418;13.668;2022-11-20T06:18:00;100611.00;;;-1.16;100.00
12172;BME280;6149;52.418;13.668;2022-11-20T06:20:26;100614.41;;;-1.09;100.00
12172;BME280;6149;52.418;13.668;2022-11-20T06:22:54;100615.22;;;-1.01;100.00
12172;BME280;6149;52.418;13.668;2022-11-20T06:25:21;100604.84;;;-0.99;100.00
12172;BME280;6149;52.418;13.668;2022-11-20T06:27:48;100613.53;;;-1.08;100.00
12172;BME280;6149;52.418;13.668;2022-11-20T06:30:15;100607.47;;;-1.07;100.00
12172;BME280;6149;52.418;13.668;2022-11-20T06:32:41;100608.34;;;-1.08;100.00
12172;BME280;6149;52.418;13.668;2022-11-20T06:35:09;100611.75;;;-1.00;100.00
12172;BME280;6149;52.418;13.668;2022-11-20T06:37:36;100608.31;;;-1.02;100.00
12172;BME280;6149;52.418;13.668;2022-11-20T06:40:05;100608.31;;;-1.04;100.00
12172;BME280;6149;52.418;13.668;2022-11-20T06:42:33;100613.50;;;-1.04;100.00
12172;BME280;6149;52.418;13.668;2022-11-20T06:45:00;100616.97;;;-1.05;100.00
12172;BME280;6149;52.418;13.668;2022-11-20T06:47:26;100610.06;;;-1.07;100.00
12172;BME280;6149;52.418;13.668;2022-11-20T06:49:53;100610.06;;;-1.07;100.00
12172;BME280;6149;52.418;13.668;2022-11-20T06:52:22;100605.75;;;-1.10;100.00
12172;BME280;6149;52.418;13.668;2022-11-20T06:54:50;100600.56;;;-1.08;100.00
12172;BME280;6149;52.418;13.668;2022-11-20T06:57:18;100598.03;;;-1.13;100.00
12172;BME280;6149;52.418;13.668;2022-11-20T06:59:45;100599.75;;;-1.12;100.00
12172;BME280;6149;52.418;13.668;2022-11-20T07:02:12;100598.88;;;-1.12;100.00
12172;BME280;6149;52.418;13.668;2022-11-20T07:04:39;100606.69;;;-1.14;100.00
12172;BME280;6149;52.418;13.668;2022-11-20T07:07:05;100599.75;;;-1.15;100.00
12172;BME280;6149;52.418;13.668;2022-11-20T07:09:32;100603.22;;;-1.16;100.00
12172;BME280;6149;52.418;13.668;2022-11-20T07:11:59;100607.56;;;-1.15;100.00
12172;BME280;6149;52.418;13.668;2022-11-20T07:14:27;100607.53;;;-1.12;100.00
12172;BME280;6149;52.418;13.668;2022-11-20T07:16:54;100607.53;;;-1.12;100.00
12172;BME280;6149;52.418;13.668;2022-11-20T07:19:21;100604.06;;;-1.12;100.00
12172;BME280;6149;52.418;13.668;2022-11-20T07:21:47;100605.75;;;-1.11;100.00
12172;BME280;6149;52.418;13.668;2022-11-20T07:24:14;100602.31;;;-1.10;100.00
12172;BME280;6149;52.418;13.668;2022-11-20T07:26:40;100598.84;;;-1.09;100.00
12172;BME280;6149;52.418;13.668;2022-11-20T07:29:08;100597.97;;;-1.08;100.00
12172;BME280;6149;52.418;13.668;2022-11-20T07:31:36;100597.97;;;-1.11;100.00
12172;BME280;6149;52.418;13.668;2022-11-20T07:34:03;100597.16;;;-1.12;100.00
12172;BME280;6149;52.418;13.668;2022-11-20T07:36:30;100596.25;;;-1.11;100.00
12172;BME280;6149;52.418;13.668;2022-11-20T07:38:56;100596.25;;;-1.08;100.00
12172;BME280;6149;52.418;13.668;2022-11-20T07:41:23;100597.13;;;-1.10;100.00
12172;BME280;6149;52.418;13.668;2022-11-20T07:43:49;100592.84;;;-1.13;100.00
12172;BME280;6149;52.418;13.668;2022-11-20T07:46:16;100591.97;;;-1.15;100.00
12172;BME280;6149;52.418;13.668;2022-11-20T07:48:44;100591.06;;;-1.11;100.00
12172;BME280;6149;52.418;13.668;2022-11-20T07:51:10;100591.06;;;-1.09;100.00
12172;BME280;6149;52.418;13.668;2022-11-20T07:53:38;100592.75;;;-1.05;100.00
12172;BME280;6149;52.418;13.668;2022-11-20T07:56:05;100591.03;;;-1.03;100.00
12172;BME280;6149;52.418;13.668;2022-11-20T07:58:32;100586.66;;;-0.98;100.00
12172;BME280;6149;52.418;13.668;2022-11-20T08:01:02;100585.78;;;-0.92;100.00
12172;BME280;6149;52.418;13.668;2022-11-20T08:03:33;100587.41;;;-0.76;100.00
12172;BME280;6149;52.418;13.668;2022-11-20T08:06:01;100594.34;;;-0.81;100.00
12172;BME280;6149;52.418;13.668;2022-11-20T08:08:28;100586.63;;;-0.89;100.00
12172;BME280;6149;52.418;13.668;2022-11-20T08:10:56;100587.44;;;-0.81;100.00
12172;BME280;6149;52.418;13.668;2022-11-20T08:13:43;100582.25;;;-0.82;100.00
12172;BME280;6149;52.418;13.668;2022-11-20T08:16:28;100587.47;;;-0.85;100.00
12172;BME280;6149;52.418;13.668;2022-11-20T08:18:54;100585.72;;;-0.83;100.00
12172;BME280;6149;52.418;13.668;2022-11-20T08:21:22;100585.72;;;-0.85;100.00
12172;BME280;6149;52.418;13.668;2022-11-20T08:23:49;100589.16;;;-0.78;100.00
12172;BME280;6149;52.418;13.668;2022-11-20T08:26:16;100585.69;;;-0.80;100.00
12172;BME280;6149;52.418;13.668;2022-11-20T08:28:42;100589.16;;;-0.78;100.00
12172;BME280;6149;52.418;13.668;2022-11-20T08:31:10;100586.53;;;-0.77;100.00
12172;BME280;6149;52.418;13.668;2022-11-20T08:33:37;100587.38;;;-0.75;100.00
12172;BME280;6149;52.418;13.668;2022-11-20T08:36:04;100585.59;;;-0.68;100.00
12172;BME280;6149;52.418;13.668;2022-11-20T08:38:33;100589.91;;;-0.70;100.00
12172;BME280;6149;52.418;13.668;2022-11-20T08:41:00;100586.47;;;-0.71;100.00
12172;BME280;6149;52.418;13.668;2022-11-20T08:43:46;100580.41;;;-0.70;100.00
12172;BME280;6149;52.418;13.668;2022-11-20T08:46:13;100584.72;;;-0.67;100.00
12172;BME280;6149;52.418;13.668;2022-11-20T08:48:40;100576.91;;;-0.67;100.00
12172;BME280;6149;52.418;13.668;2022-11-20T08:51:07;100573.47;;;-0.69;100.00
12172;BME280;6149;52.418;13.668;2022-11-20T08:53:35;100581.25;;;-0.68;100.00
12172;BME280;6149;52.418;13.668;2022-11-20T08:56:02;100569.09;;;-0.61;100.00
12172;BME280;6149;52.418;13.668;2022-11-20T08:58:28;100577.75;;;-0.63;100.00
12172;BME280;6149;52.418;13.668;2022-11-20T09:00:55;100569.88;;;-0.50;100.00
12172;BME280;6149;52.418;13.668;2022-11-20T09:03:22;100569.03;;;-0.55;100.00
12172;BME280;6149;52.418;13.668;2022-11-20T09:05:56;100569.88;;;-0.50;100.00
12172;BME280;6149;52.418;13.668;2022-11-20T09:08:24;100568.19;;;-0.57;100.00
12172;BME280;6149;52.418;13.668;2022-11-20T09:10:53;100564.72;;;-0.56;100.00
12172;BME280;6149;52.418;13.668;2022-11-20T09:13:20;100570.78;;;-0.55;100.00
12172;BME280;6149;52.418;13.668;2022-11-20T09:15:47;100569.88;;;-0.50;100.00
12172;BME280;6149;52.418;13.668;2022-11-20T09:18:14;100569.94;;;-0.59;100.00
12172;BME280;6149;52.418;13.668;2022-11-20T09:20:41;100570.78;;;-0.55;100.00
12172;BME280;6149;52.418;13.668;2022-11-20T09:23:08;100569.03;;;-0.55;100.00
12172;BME280;6149;52.418;13.668;2022-11-20T09:25:35;100568.16;;;-0.52;100.00
12172;BME280;6149;52.418;13.668;2022-11-20T09:28:03;100567.28;;;-0.51;100.00
12172;BME280;6149;52.418;13.668;2022-11-20T09:30:30;100575.03;;;-0.47;100.00
12172;BME280;6149;52.418;13.668;2022-11-20T09:32:57;100566.34;;;-0.44;100.00
12172;BME280;6149;52.418;13.668;2022-11-20T09:35:24;100568.94;;;-0.41;100.00
12172;BME280;6149;52.418;13.668;2022-11-20T09:37:50;100577.50;;;-0.35;100.00
12172;BME280;6149;52.418;13.668;2022-11-20T09:40:20;100574.88;;;-0.30;100.00
12172;BME280;6149;52.418;13.668;2022-11-20T09:42:54;100581.03;;;-0.39;100.00
12172;BME280;6149;52.418;13.668;2022-11-20T09:45:34;100580.22;;;-0.47;100.00
12172;BME280;6149;52.418;13.668;2022-11-20T09:48:22;100574.22;;;-0.55;100.00
12172;BME280;6149;52.418;13.668;2022-11-20T09:51:16;100575.91;;;-0.48;100.00
12172;BME280;6149;52.418;13.668;2022-11-20T09:54:00;100573.38;;;-0.54;100.00
12172;BME280;6149;52.418;13.668;2022-11-20T09:56:37;100563.03;;;-0.61;100.00
12172;BME280;6149;52.418;13.668;2022-11-20T09:59:10;100562.19;;;-0.65;100.00
12172;BME280;6149;52.418;13.668;2022-11-20T10:01:58;100559.63;;;-0.70;100.00
12172;BME280;6149;52.418;13.668;2022-11-20T10:04:26;100566.50;;;-0.64;100.00
12172;BME280;6149;52.418;13.668;2022-11-20T10:07:01;100550.03;;;-0.60;100.00
12172;BME280;6149;52.418;13.668;2022-11-20T10:09:34;100557.81;;;-0.57;100.00
12172;BME280;6149;52.418;13.668;2022-11-20T10:12:11;100556.94;;;-0.56;100.00
12172;BME280;6149;52.418;13.668;2022-11-20T10:14:54;100550.88;;;-0.55;100.00
12172;BME280;6149;52.418;13.668;2022-11-20T10:17:45;100549.13;;;-0.54;100.00
12172;BME280;6149;52.418;13.668;2022-11-20T10:20:25;100548.25;;;-0.52;100.00
12172;BME280;6149;52.418;13.668;2022-11-20T10:23:08;100547.34;;;-0.48;100.00
12172;BME280;6149;52.418;13.668;2022-11-20T10:25:51;100556.91;;;-0.51;100.00
12172;BME280;6149;52.418;13.668;2022-11-20T10:28:29;100556.88;;;-0.48;100.00
12172;BME280;6149;52.418;13.668;2022-11-20T10:31:10;100559.44;;;-0.47;100.00
12172;BME280;6149;52.418;13.668;2022-11-20T10:33:41;100552.56;;;-0.49;100.00
12172;BME280;6149;52.418;13.668;2022-11-20T10:36:14;100549.78;;;-0.32;100.00
12172;BME280;6149;52.418;13.668;2022-11-20T10:38:48;100541.13;;;-0.33;100.00
12172;BME280;6149;52.418;13.668;2022-11-20T10:41:22;100542.75;;;-0.21;100.00
12172;BME280;6149;52.418;13.668;2022-11-20T10:43:53;100540.19;;;-0.24;100.00
12172;BME280;6149;52.418;13.668;2022-11-20T10:46:23;100541.97;;;-0.32;100.00
12172;BME280;6149;52.418;13.668;2022-11-20T10:48:53;100532.44;;;-0.29;100.00
12172;BME280;6149;52.418;13.668;2022-11-20T10:51:30;100532.44;;;-0.29;100.00
12172;BME280;6149;52.418;13.668;2022-11-20T10:54:09;100522.00;;;-0.26;100.00
12172;BME280;6149;52.418;13.668;2022-11-20T10:56:46;100530.66;;;-0.25;100.00
12172;BME280;6149;52.418;13.668;2022-11-20T10:59:41;100530.59;;;-0.18;100.00
12172;BME280;6149;52.418;13.668;2022-11-20T11:02:16;100528.88;;;-0.20;100.00
12172;BME280;6149;52.418;13.668;2022-11-20T11:04:47;100524.47;;;-0.14;100.00
12172;BME280;6149;52.418;13.668;2022-11-20T11:07:19;100526.94;;;-0.02;100.00
12172;BME280;6149;52.418;13.668;2022-11-20T11:09:49;100526.00;;;0.04;100.00
12172;BME280;6149;52.418;13.668;2022-11-20T11:12:16;100527.84;;;-0.03;100.00
12172;BME280;6149;52.418;13.668;2022-11-20T11:14:47;100526.88;;;0.02;100.00
12172;BME280;6149;52.418;13.668;2022-11-20T11:17:24;100524.28;;;0.03;100.00
12172;BME280;6149;52.418;13.668;2022-11-20T11:20:04;100519.94;;;0.02;100.00
12172;BME280;6149;52.418;13.668;2022-11-20T11:22:34;100519.00;;;0.09;100.00
12172;BME280;6149;52.418;13.668;2022-11-20T11:25:20;100517.34;;;0.02;100.00
12172;BME280;6149;52.418;13.668;2022-11-20T11:27:49;100506.91;;;0.05;100.00
12172;BME280;6149;52.418;13.668;2022-11-20T11:30:18;100510.25;;;0.16;100.00
12172;BME280;6149;52.418;13.668;2022-11-20T11:32:46;100506.88;;;0.08;100.00
12172;BME280;6149;52.418;13.668;2022-11-20T11:35:23;100501.72;;;0.07;100.00
12172;BME280;6149;52.418;13.668;2022-11-20T11:37:52;100502.53;;;0.10;100.00
12172;BME280;6149;52.418;13.668;2022-11-20T11:40:21;100497.31;;;0.12;100.00
12172;BME280;6149;52.418;13.668;2022-11-20T11:42:54;100499.94;;;0.09;100.00
12172;BME280;6149;52.418;13.668;2022-11-20T11:45:22;100495.59;;;0.11;100.00
12172;BME280;6149;52.418;13.668;2022-11-20T11:47:50;100494.78;;;0.07;100.00
12172;BME280;6149;52.418;13.668;2022-11-20T11:50:21;100496.50;;;0.08;100.00
12172;BME280;6149;52.418;13.668;2022-11-20T11:52:55;100494.75;;;0.09;100.00
12172;BME280;6149;52.418;13.668;2022-11-20T11:55:31;100496.38;;;0.17;100.00
12172;BME280;6149;52.418;13.668;2022-11-20T11:58:11;100492.88;;;0.20;100.00
12172;BME280;6149;52.418;13.668;2022-11-20T12:00:49;100483.34;;;0.22;100.00
12172;BME280;6149;52.418;13.668;2022-11-20T12:03:24;100482.28;;;0.37;100.00
12172;BME280;6149;52.418;13.668;2022-11-20T12:05:58;100483.94;;;0.41;100.00
12172;BME280;6149;52.418;13.668;2022-11-20T12:08:31;100483.06;;;0.40;100.00
12172;BME280;6149;52.418;13.668;2022-11-20T12:11:04;100487.31;;;0.46;100.00
12172;BME280;6149;52.418;13.668;2022-11-20T12:13:46;100487.28;;;0.49;100.00
12172;BME280;6149;52.418;13.668;2022-11-20T12:16:19;100480.25;;;0.57;100.00
12172;BME280;6149;52.418;13.668;2022-11-20T12:18:48;100487.19;;;0.56;100.00
12172;BME280;6149;52.418;13.668;2022-11-20T12:21:20;100481.78;;;0.72;100.00
12172;BME280;6149;52.418;13.668;2022-11-20T12:27:05;100475.78;;;0.66;100.00
12172;BME280;6149;52.418;13.668;2022-11-20T12:29:49;100470.56;;;0.66;100.00
12172;BME280;6149;52.418;13.668;2022-11-20T12:32:39;100466.94;;;0.75;100.00
12172;BME280;6149;52.418;13.668;2022-11-20T12:35:44;100467.78;;;0.77;100.00
12172;BME280;6149;52.418;13.668;2022-11-20T12:38:56;100474.53;;;0.90;100.00
12172;BME280;6149;52.418;13.668;2022-11-20T12:41:42;100468.50;;;0.87;100.00
12172;BME280;6149;52.418;13.668;2022-11-20T12:44:43;100464.94;;;0.92;100.00
12172;BME280;6149;52.418;13.668;2022-11-20T12:47:48;100465.75;;;0.97;100.00
12172;BME280;6149;52.418;13.668;2022-11-20T12:50:28;100466.56;;;0.99;100.00
12172;BME280;6149;52.418;13.668;2022-11-20T12:53:04;100465.75;;;0.97;100.00
12172;BME280;6149;52.418;13.668;2022-11-20T12:55:40;100459.63;;;1.00;100.00
12172;BME280;6149;52.418;13.668;2022-11-20T12:58:19;100453.59;;;0.96;100.00
12172;BME280;6149;52.418;13.668;2022-11-20T13:00:56;100451.84;;;0.98;100.00